Aérodrome :
LOGIN :

S'inscrire | Disclaimer

   EN    FR    IT 

 










Légende :    VFR   VFR Marginal   IFR   IFR Intensif   IFR Très Intensif
Visi : 
Plafond : 
>= 8 km
>= 3000ft
5 à 8 km
1000 à 3000 ft
1500m à 5 km
500 à 1000 ft
800 à 1500m
200 à 500 ft
< 800m
< 200 ft
Symboles :   Orages  Brouillard  Fortes neiges  Fortes précipitations  Vent > 20 kt
SIGMETs :   Divers  Orages  Givrage  Turbulence  Onde Orograph.  Cendres Volcan.







- Altitude de l'aérodrome : 505 ft
- Code IATA : SXB
- Voir les cartes d'approche


LFST - Strasbourg

DERNIER METAR :
  • 230000Z AUTO 24008KT 9999 SCT033 BKN040 BKN047 09/06 Q1020 NOSIG

METARs EXPIRÉS :
  • 222330Z AUTO 24007KT 180V270 9999 -RA FEW033 BKN039 BKN046 09/06 Q1020 NOSIG
  • 222300Z AUTO 19005KT 9999 FEW039 SCT052 OVC064 09/06 Q1020 NOSIG
  • 222230Z AUTO 19005KT 9999 FEW042 SCT066 OVC120 08/06 Q1020 NOSIG
  • 222200Z AUTO 19005KT 160V220 9999 FEW041 SCT060 OVC120 09/06 Q1020 NOSIG
  • 222130Z AUTO 20004KT 160V230 9999 FEW048 SCT098 OVC120 09/06 Q1020 NOSIG

TAF TAF LFST
Valide du 23 à 00h jusqu'au 24 à 00h UTC


222300Z 2300/2324 25006KT 9999 SCT030 BKN050
PROB30
TEMPO 2303/2307 -RA BKN014
TEMPO 2314/2324 -SHRA
PROB30
TEMPO 2321/2324 4000 BKN004
Pas de NOTAMs connus pour ce terrain.
1 SIGMET publié pour la FIR Reims (LFEE) :
 
Turbulence forte
LFEE SIGMET 7 VALID 222300/230300 LFPW
LFEE REIMS FIR/UIR SEV TURB FCST NE OF LINE N4745 E00445 - N4630 E00515 FL220/320 MOV E 15KT NC=



MET'MAP, la Météo Aéronautique d'un coup d'oeil ! - Copyright ORBIFLY Décembre 2007 - Disclaimer

ORBIFLY MET'MAP TEAM :

Programmation & Développement : Alexandra Zaïnal
Conception & Développement : Baudouin d'Aumeries
Co-Programmation & Développement : Marc-Olivier Méhu
Soutien technique & logistique : Manuel Goepfert

Contact : metmap@orbifly.com




SOURCES & CREDITS :

   NOAA